sensor_id;sensor_type;location;lat;lon;timestamp;P1;durP1;ratioP1;P2;durP2;ratioP2
31298;SDS011;17927;52.350;13.402;2022-07-22T00:01:09;6.28;;;5.78;;
31298;SDS011;17927;52.350;13.402;2022-07-22T00:03:34;6.22;;;5.82;;
31298;SDS011;17927;52.350;13.402;2022-07-22T00:05:59;10.10;;;5.97;;
31298;SDS011;17927;52.350;13.402;2022-07-22T00:08:24;5.85;;;5.45;;
31298;SDS011;17927;52.350;13.402;2022-07-22T00:10:50;6.47;;;5.88;;
31298;SDS011;17927;52.350;13.402;2022-07-22T00:13:15;6.93;;;6.32;;
31298;SDS011;17927;52.350;13.402;2022-07-22T00:15:40;6.43;;;5.93;;
31298;SDS011;17927;52.350;13.402;2022-07-22T00:18:06;7.22;;;6.68;;
31298;SDS011;17927;52.350;13.402;2022-07-22T00:20:31;6.93;;;6.38;;
31298;SDS011;17927;52.350;13.402;2022-07-22T00:22:56;7.70;;;7.10;;
31298;SDS011;17927;52.350;13.402;2022-07-22T00:25:21;6.90;;;6.35;;
31298;SDS011;17927;52.350;13.402;2022-07-22T00:27:47;9.13;;;6.93;;
31298;SDS011;17927;52.350;13.402;2022-07-22T00:30:12;6.47;;;6.07;;
31298;SDS011;17927;52.350;13.402;2022-07-22T00:32:37;7.05;;;6.53;;
31298;SDS011;17927;52.350;13.402;2022-07-22T00:35:03;7.38;;;6.68;;
31298;SDS011;17927;52.350;13.402;2022-07-22T00:37:29;6.78;;;6.03;;
31298;SDS011;17927;52.350;13.402;2022-07-22T00:39:54;6.70;;;6.13;;
31298;SDS011;17927;52.350;13.402;2022-07-22T00:42:19;7.28;;;6.68;;
31298;SDS011;17927;52.350;13.402;2022-07-22T00:44:45;7.82;;;7.13;;
31298;SDS011;17927;52.350;13.402;2022-07-22T00:47:11;6.80;;;6.30;;
31298;SDS011;17927;52.350;13.402;2022-07-22T00:49:36;6.35;;;5.93;;
31298;SDS011;17927;52.350;13.402;2022-07-22T00:52:02;6.43;;;6.03;;
31298;SDS011;17927;52.350;13.402;2022-07-22T00:54:28;7.88;;;6.65;;
31298;SDS011;17927;52.350;13.402;2022-07-22T00:56:54;6.55;;;6.00;;
31298;SDS011;17927;52.350;13.402;2022-07-22T00:59:19;6.25;;;5.80;;
31298;SDS011;17927;52.350;13.402;2022-07-22T01:01:45;5.47;;;5.18;;
31298;SDS011;17927;52.350;13.402;2022-07-22T01:04:10;6.10;;;5.60;;
31298;SDS011;17927;52.350;13.402;2022-07-22T01:06:35;5.70;;;5.20;;
31298;SDS011;17927;52.350;13.402;2022-07-22T01:09:01;5.50;;;5.10;;
31298;SDS011;17927;52.350;13.402;2022-07-22T01:11:27;5.80;;;5.22;;
31298;SDS011;17927;52.350;13.402;2022-07-22T01:13:53;4.78;;;4.47;;
31298;SDS011;17927;52.350;13.402;2022-07-22T01:16:20;4.53;;;4.25;;
31298;SDS011;17927;52.350;13.402;2022-07-22T01:18:46;4.00;;;3.80;;
31298;SDS011;17927;52.350;13.402;2022-07-22T01:21:13;4.82;;;4.55;;
31298;SDS011;17927;52.350;13.402;2022-07-22T01:23:39;4.65;;;4.35;;
31298;SDS011;17927;52.350;13.402;2022-07-22T01:26:05;4.55;;;4.25;;
31298;SDS011;17927;52.350;13.402;2022-07-22T01:28:30;4.72;;;4.43;;
31298;SDS011;17927;52.350;13.402;2022-07-22T01:30:56;4.20;;;3.90;;
31298;SDS011;17927;52.350;13.402;2022-07-22T01:33:22;4.57;;;4.28;;
31298;SDS011;17927;52.350;13.402;2022-07-22T01:35:48;4.38;;;4.18;;
31298;SDS011;17927;52.350;13.402;2022-07-22T01:38:14;3.90;;;3.63;;
31298;SDS011;17927;52.350;13.402;2022-07-22T01:40:40;4.55;;;4.25;;
31298;SDS011;17927;52.350;13.402;2022-07-22T01:43:06;4.70;;;4.30;;
31298;SDS011;17927;52.350;13.402;2022-07-22T01:45:32;4.20;;;3.95;;
31298;SDS011;17927;52.350;13.402;2022-07-22T01:47:57;3.72;;;3.42;;
31298;SDS011;17927;52.350;13.402;2022-07-22T01:50:23;4.50;;;4.20;;
31298;SDS011;17927;52.350;13.402;2022-07-22T01:52:48;4.07;;;3.83;;
31298;SDS011;17927;52.350;13.402;2022-07-22T01:55:13;4.10;;;3.90;;
31298;SDS011;17927;52.350;13.402;2022-07-22T01:57:39;4.25;;;3.83;;
31298;SDS011;17927;52.350;13.402;2022-07-22T02:00:05;4.30;;;4.00;;
31298;SDS011;17927;52.350;13.402;2022-07-22T02:02:32;4.40;;;4.03;;
31298;SDS011;17927;52.350;13.402;2022-07-22T02:04:58;4.40;;;4.10;;
31298;SDS011;17927;52.350;13.402;2022-07-22T02:07:23;4.85;;;4.47;;
31298;SDS011;17927;52.350;13.402;2022-07-22T02:09:50;4.88;;;4.57;;
31298;SDS011;17927;52.350;13.402;2022-07-22T02:12:16;4.93;;;4.63;;
31298;SDS011;17927;52.350;13.402;2022-07-22T02:14:41;5.70;;;5.30;;
31298;SDS011;17927;52.350;13.402;2022-07-22T02:17:06;5.80;;;5.35;;
31298;SDS011;17927;52.350;13.402;2022-07-22T02:19:31;6.22;;;5.82;;
31298;SDS011;17927;52.350;13.402;2022-07-22T02:21:57;6.32;;;5.90;;
31298;SDS011;17927;52.350;13.402;2022-07-22T02:24:22;6.80;;;6.30;;
31298;SDS011;17927;52.350;13.402;2022-07-22T02:26:47;7.00;;;6.53;;
31298;SDS011;17927;52.350;13.402;2022-07-22T02:29:12;6.85;;;6.45;;
31298;SDS011;17927;52.350;13.402;2022-07-22T02:31:38;6.95;;;6.45;;
31298;SDS011;17927;52.350;13.402;2022-07-22T02:34:03;7.50;;;6.90;;
31298;SDS011;17927;52.350;13.402;2022-07-22T02:36:28;8.55;;;7.85;;
31298;SDS011;17927;52.350;13.402;2022-07-22T02:38:53;7.68;;;7.07;;
31298;SDS011;17927;52.350;13.402;2022-07-22T02:41:19;7.75;;;7.20;;
31298;SDS011;17927;52.350;13.402;2022-07-22T02:43:44;7.95;;;7.40;;
31298;SDS011;17927;52.350;13.402;2022-07-22T02:46:09;7.78;;;7.13;;
31298;SDS011;17927;52.350;13.402;2022-07-22T02:48:34;6.97;;;6.47;;
31298;SDS011;17927;52.350;13.402;2022-07-22T02:51:00;8.98;;;8.27;;
31298;SDS011;17927;52.350;13.402;2022-07-22T02:53:25;9.57;;;8.68;;
31298;SDS011;17927;52.350;13.402;2022-07-22T02:55:50;9.07;;;8.18;;
31298;SDS011;17927;52.350;13.402;2022-07-22T02:58:15;8.23;;;7.60;;
31298;SDS011;17927;52.350;13.402;2022-07-22T03:00:41;8.05;;;7.45;;
31298;SDS011;17927;52.350;13.402;2022-07-22T03:03:06;8.85;;;8.05;;
31298;SDS011;17927;52.350;13.402;2022-07-22T03:05:31;8.10;;;7.57;;
31298;SDS011;17927;52.350;13.402;2022-07-22T03:07:57;8.65;;;7.97;;
31298;SDS011;17927;52.350;13.402;2022-07-22T03:10:22;8.77;;;8.07;;
31298;SDS011;17927;52.350;13.402;2022-07-22T03:12:47;8.85;;;8.18;;
31298;SDS011;17927;52.350;13.402;2022-07-22T03:15:12;8.70;;;7.95;;
31298;SDS011;17927;52.350;13.402;2022-07-22T03:17:38;8.90;;;8.05;;
31298;SDS011;17927;52.350;13.402;2022-07-22T03:20:04;8.70;;;8.00;;
31298;SDS011;17927;52.350;13.402;2022-07-22T03:22:30;9.02;;;8.32;;
31298;SDS011;17927;52.350;13.402;2022-07-22T03:24:56;8.60;;;8.00;;
31298;SDS011;17927;52.350;13.402;2022-07-22T03:27:21;8.95;;;8.27;;
31298;SDS011;17927;52.350;13.402;2022-07-22T03:29:46;8.32;;;7.63;;
31298;SDS011;17927;52.350;13.402;2022-07-22T03:32:12;9.80;;;8.98;;
31298;SDS011;17927;52.350;13.402;2022-07-22T03:34:37;9.43;;;8.73;;
31298;SDS011;17927;52.350;13.402;2022-07-22T03:37:02;9.25;;;8.45;;
31298;SDS011;17927;52.350;13.402;2022-07-22T03:39:28;9.52;;;8.73;;
31298;SDS011;17927;52.350;13.402;2022-07-22T03:41:53;10.13;;;9.25;;
31298;SDS011;17927;52.350;13.402;2022-07-22T03:44:18;8.35;;;7.75;;
31298;SDS011;17927;52.350;13.402;2022-07-22T03:46:44;8.02;;;7.35;;
31298;SDS011;17927;52.350;13.402;2022-07-22T03:49:09;9.20;;;8.32;;
31298;SDS011;17927;52.350;13.402;2022-07-22T03:51:34;8.50;;;7.80;;
31298;SDS011;17927;52.350;13.402;2022-07-22T03:53:59;9.80;;;8.95;;
31298;SDS011;17927;52.350;13.402;2022-07-22T03:56:25;8.57;;;7.80;;
31298;SDS011;17927;52.350;13.402;2022-07-22T03:58:50;8.73;;;8.10;;
31298;SDS011;17927;52.350;13.402;2022-07-22T04:01:15;8.15;;;7.57;;
31298;SDS011;17927;52.350;13.402;2022-07-22T04:03:40;8.60;;;8.00;;
31298;SDS011;17927;52.350;13.402;2022-07-22T04:06:06;9.20;;;8.30;;
31298;SDS011;17927;52.350;13.402;2022-07-22T04:08:31;9.45;;;8.75;;
31298;SDS011;17927;52.350;13.402;2022-07-22T04:10:57;9.90;;;9.10;;
31298;SDS011;17927;52.350;13.402;2022-07-22T04:13:22;8.98;;;8.32;;
31298;SDS011;17927;52.350;13.402;2022-07-22T04:15:47;9.25;;;8.55;;
31298;SDS011;17927;52.350;13.402;2022-07-22T04:18:12;9.73;;;8.85;;
31298;SDS011;17927;52.350;13.402;2022-07-22T04:20:38;9.65;;;8.82;;
31298;SDS011;17927;52.350;13.402;2022-07-22T04:23:03;11.13;;;9.07;;
31298;SDS011;17927;52.350;13.402;2022-07-22T04:25:28;8.85;;;8.10;;
31298;SDS011;17927;52.350;13.402;2022-07-22T04:27:53;9.40;;;8.70;;
31298;SDS011;17927;52.350;13.402;2022-07-22T04:30:19;8.95;;;8.02;;
31298;SDS011;17927;52.350;13.402;2022-07-22T04:32:44;10.77;;;9.85;;
31298;SDS011;17927;52.350;13.402;2022-07-22T04:35:10;9.38;;;8.68;;
31298;SDS011;17927;52.350;13.402;2022-07-22T04:37:35;9.90;;;8.95;;
31298;SDS011;17927;52.350;13.402;2022-07-22T04:40:00;8.57;;;7.93;;
31298;SDS011;17927;52.350;13.402;2022-07-22T04:42:25;9.15;;;8.45;;
31298;SDS011;17927;52.350;13.402;2022-07-22T04:44:51;9.40;;;8.60;;
31298;SDS011;17927;52.350;13.402;2022-07-22T04:47:16;10.07;;;9.27;;
31298;SDS011;17927;52.350;13.402;2022-07-22T04:49:41;10.07;;;9.18;;
31298;SDS011;17927;52.350;13.402;2022-07-22T04:52:06;9.57;;;8.77;;
31298;SDS011;17927;52.350;13.402;2022-07-22T04:54:32;9.50;;;8.80;;
31298;SDS011;17927;52.350;13.402;2022-07-22T04:56:57;10.05;;;9.18;;
31298;SDS011;17927;52.350;13.402;2022-07-22T04:59:22;9.68;;;8.88;;
31298;SDS011;17927;52.350;13.402;2022-07-22T05:01:47;9.95;;;9.10;;
31298;SDS011;17927;52.350;13.402;2022-07-22T05:04:13;11.43;;;9.00;;
31298;SDS011;17927;52.350;13.402;2022-07-22T05:06:38;10.60;;;9.73;;
31298;SDS011;17927;52.350;13.402;2022-07-22T05:09:03;9.43;;;8.73;;
31298;SDS011;17927;52.350;13.402;2022-07-22T05:11:29;10.70;;;9.73;;
31298;SDS011;17927;52.350;13.402;2022-07-22T05:13:54;10.80;;;9.93;;
31298;SDS011;17927;52.350;13.402;2022-07-22T05:16:19;10.45;;;9.55;;
31298;SDS011;17927;52.350;13.402;2022-07-22T05:18:44;9.80;;;9.10;;
31298;SDS011;17927;52.350;13.402;2022-07-22T05:21:10;11.75;;;10.75;;
31298;SDS011;17927;52.350;13.402;2022-07-22T05:23:35;11.55;;;10.15;;
31298;SDS011;17927;52.350;13.402;2022-07-22T05:26:01;11.38;;;10.27;;
31298;SDS011;17927;52.350;13.402;2022-07-22T05:28:26;11.57;;;10.55;;
31298;SDS011;17927;52.350;13.402;2022-07-22T05:30:51;11.90;;;10.88;;
31298;SDS011;17927;52.350;13.402;2022-07-22T05:33:16;10.95;;;10.00;;
31298;SDS011;17927;52.350;13.402;2022-07-22T05:35:42;10.82;;;9.75;;
31298;SDS011;17927;52.350;13.402;2022-07-22T05:38:07;11.40;;;10.48;;
31298;SDS011;17927;52.350;13.402;2022-07-22T05:40:32;11.43;;;10.40;;
31298;SDS011;17927;52.350;13.402;2022-07-22T05:42:58;11.20;;;10.20;;
31298;SDS011;17927;52.350;13.402;2022-07-22T05:45:23;9.88;;;9.07;;
31298;SDS011;17927;52.350;13.402;2022-07-22T05:47:48;11.55;;;10.38;;
31298;SDS011;17927;52.350;13.402;2022-07-22T05:50:14;12.00;;;10.90;;
31298;SDS011;17927;52.350;13.402;2022-07-22T05:52:39;10.95;;;10.05;;
31298;SDS011;17927;52.350;13.402;2022-07-22T05:55:05;11.20;;;9.73;;
31298;SDS011;17927;52.350;13.402;2022-07-22T05:57:31;11.52;;;9.70;;
31298;SDS011;17927;52.350;13.402;2022-07-22T05:59:56;10.45;;;9.65;;
31298;SDS011;17927;52.350;13.402;2022-07-22T06:02:21;10.95;;;10.00;;
31298;SDS011;17927;52.350;13.402;2022-07-22T06:04:47;10.80;;;9.82;;
31298;SDS011;17927;52.350;13.402;2022-07-22T06:07:12;11.63;;;10.70;;
31298;SDS011;17927;52.350;13.402;2022-07-22T06:09:37;11.20;;;10.25;;
31298;SDS011;17927;52.350;13.402;2022-07-22T06:12:03;10.80;;;10.00;;
31298;SDS011;17927;52.350;13.402;2022-07-22T06:14:28;11.20;;;10.10;;
31298;SDS011;17927;52.350;13.402;2022-07-22T06:16:54;11.05;;;10.15;;
31298;SDS011;17927;52.350;13.402;2022-07-22T06:19:19;10.90;;;10.00;;
31298;SDS011;17927;52.350;13.402;2022-07-22T06:21:44;10.40;;;9.50;;
31298;SDS011;17927;52.350;13.402;2022-07-22T06:24:09;11.95;;;10.95;;
31298;SDS011;17927;52.350;13.402;2022-07-22T06:26:35;10.57;;;9.77;;
31298;SDS011;17927;52.350;13.402;2022-07-22T06:29:00;11.68;;;10.60;;
31298;SDS011;17927;52.350;13.402;2022-07-22T06:31:25;10.60;;;9.82;;
31298;SDS011;17927;52.350;13.402;2022-07-22T06:33:50;11.07;;;10.02;;
31298;SDS011;17927;52.350;13.402;2022-07-22T06:36:16;10.50;;;9.48;;
31298;SDS011;17927;52.350;13.402;2022-07-22T06:38:42;9.77;;;9.07;;
31298;SDS011;17927;52.350;13.402;2022-07-22T06:41:08;10.98;;;10.07;;
31298;SDS011;17927;52.350;13.402;2022-07-22T06:43:33;10.02;;;9.23;;
31298;SDS011;17927;52.350;13.402;2022-07-22T06:45:58;9.95;;;9.13;;
31298;SDS011;17927;52.350;13.402;2022-07-22T06:48:24;13.45;;;10.10;;
31298;SDS011;17927;52.350;13.402;2022-07-22T06:50:49;10.55;;;9.52;;
31298;SDS011;17927;52.350;13.402;2022-07-22T06:53:14;10.70;;;9.90;;
31298;SDS011;17927;52.350;13.402;2022-07-22T06:55:39;10.05;;;9.30;;
31298;SDS011;17927;52.350;13.402;2022-07-22T06:58:05;9.43;;;8.63;;
31298;SDS011;17927;52.350;13.402;2022-07-22T07:00:30;9.90;;;8.90;;
31298;SDS011;17927;52.350;13.402;2022-07-22T07:02:58;9.27;;;8.55;;
31298;SDS011;17927;52.350;13.402;2022-07-22T07:05:24;8.48;;;7.88;;
31298;SDS011;17927;52.350;13.402;2022-07-22T07:07:52;9.00;;;8.30;;
31298;SDS011;17927;52.350;13.402;2022-07-22T07:10:17;9.10;;;8.40;;
31298;SDS011;17927;52.350;13.402;2022-07-22T07:12:42;9.65;;;8.75;;
31298;SDS011;17927;52.350;13.402;2022-07-22T07:15:08;8.80;;;8.10;;
31298;SDS011;17927;52.350;13.402;2022-07-22T07:17:33;9.98;;;8.98;;
31298;SDS011;17927;52.350;13.402;2022-07-22T07:19:59;8.45;;;7.85;;
31298;SDS011;17927;52.350;13.402;2022-07-22T07:22:24;9.13;;;8.25;;
31298;SDS011;17927;52.350;13.402;2022-07-22T07:24:49;8.73;;;7.82;;
31298;SDS011;17927;52.350;13.402;2022-07-22T07:27:15;12.77;;;8.18;;
31298;SDS011;17927;52.350;13.402;2022-07-22T07:29:40;9.18;;;8.38;;
31298;SDS011;17927;52.350;13.402;2022-07-22T07:32:05;8.15;;;7.45;;
31298;SDS011;17927;52.350;13.402;2022-07-22T07:34:30;7.43;;;6.82;;
31298;SDS011;17927;52.350;13.402;2022-07-22T07:36:56;8.88;;;7.28;;
31298;SDS011;17927;52.350;13.402;2022-07-22T07:39:22;16.75;;;6.85;;
31298;SDS011;17927;52.350;13.402;2022-07-22T07:41:48;6.78;;;6.28;;
31298;SDS011;17927;52.350;13.402;2022-07-22T07:44:13;8.60;;;7.10;;
31298;SDS011;17927;52.350;13.402;2022-07-22T07:46:38;8.68;;;7.82;;
31298;SDS011;17927;52.350;13.402;2022-07-22T07:49:03;6.88;;;6.38;;
31298;SDS011;17927;52.350;13.402;2022-07-22T07:51:29;9.07;;;6.55;;
31298;SDS011;17927;52.350;13.402;2022-07-22T07:53:54;6.13;;;5.72;;
31298;SDS011;17927;52.350;13.402;2022-07-22T07:56:19;6.25;;;5.88;;
31298;SDS011;17927;52.350;13.402;2022-07-22T07:58:45;7.03;;;6.53;;
31298;SDS011;17927;52.350;13.402;2022-07-22T08:01:10;6.63;;;6.10;;
31298;SDS011;17927;52.350;13.402;2022-07-22T08:03:35;6.32;;;5.93;;
31298;SDS011;17927;52.350;13.402;2022-07-22T08:06:01;5.82;;;5.22;;
31298;SDS011;17927;52.350;13.402;2022-07-22T08:08:26;5.78;;;5.28;;
31298;SDS011;17927;52.350;13.402;2022-07-22T08:10:52;6.30;;;5.70;;
31298;SDS011;17927;52.350;13.402;2022-07-22T08:13:17;5.60;;;5.22;;
31298;SDS011;17927;52.350;13.402;2022-07-22T08:15:43;5.63;;;5.22;;
31298;SDS011;17927;52.350;13.402;2022-07-22T08:18:08;5.85;;;5.50;;
31298;SDS011;17927;52.350;13.402;2022-07-22T08:20:33;5.45;;;5.07;;
31298;SDS011;17927;52.350;13.402;2022-07-22T08:22:59;5.47;;;5.18;;
31298;SDS011;17927;52.350;13.402;2022-07-22T08:25:24;5.25;;;4.93;;
31298;SDS011;17927;52.350;13.402;2022-07-22T08:27:49;7.60;;;5.72;;
31298;SDS011;17927;52.350;13.402;2022-07-22T08:30:15;5.97;;;5.57;;
31298;SDS011;17927;52.350;13.402;2022-07-22T08:32:41;5.32;;;4.93;;
31298;SDS011;17927;52.350;13.402;2022-07-22T08:35:06;4.80;;;4.50;;
31298;SDS011;17927;52.350;13.402;2022-07-22T08:37:32;5.50;;;5.20;;
31298;SDS011;17927;52.350;13.402;2022-07-22T08:39:57;5.13;;;4.70;;
31298;SDS011;17927;52.350;13.402;2022-07-22T08:42:24;5.40;;;4.97;;
31298;SDS011;17927;52.350;13.402;2022-07-22T08:44:49;5.35;;;4.85;;
31298;SDS011;17927;52.350;13.402;2022-07-22T08:47:15;4.53;;;4.28;;
31298;SDS011;17927;52.350;13.402;2022-07-22T08:49:45;5.33;;;5.03;;
31298;SDS011;17927;52.350;13.402;2022-07-22T08:52:10;5.50;;;5.10;;
31298;SDS011;17927;52.350;13.402;2022-07-22T08:54:35;6.00;;;4.78;;
31298;SDS011;17927;52.350;13.402;2022-07-22T08:57:00;4.75;;;4.45;;
31298;SDS011;17927;52.350;13.402;2022-07-22T08:59:26;4.20;;;4.00;;
31298;SDS011;17927;52.350;13.402;2022-07-22T09:02:00;4.30;;;4.07;;
31298;SDS011;17927;52.350;13.402;2022-07-22T09:04:27;4.03;;;3.83;;
31298;SDS011;17927;52.350;13.402;2022-07-22T09:06:52;3.85;;;3.65;;
31298;SDS011;17927;52.350;13.402;2022-07-22T09:09:18;3.90;;;3.70;;
31298;SDS011;17927;52.350;13.402;2022-07-22T09:12:06;4.25;;;3.85;;
31298;SDS011;17927;52.350;13.402;2022-07-22T09:14:45;4.65;;;4.25;;
31298;SDS011;17927;52.350;13.402;2022-07-22T09:17:21;3.92;;;3.40;;
31298;SDS011;17927;52.350;13.402;2022-07-22T09:19:58;4.60;;;4.20;;
31298;SDS011;17927;52.350;13.402;2022-07-22T09:22:38;3.03;;;2.83;;
31298;SDS011;17927;52.350;13.402;2022-07-22T09:25:16;3.00;;;2.90;;
31298;SDS011;17927;52.350;13.402;2022-07-22T09:27:41;4.05;;;3.75;;
31298;SDS011;17927;52.350;13.402;2022-07-22T09:30:07;3.53;;;3.33;;
31298;SDS011;17927;52.350;13.402;2022-07-22T09:32:41;3.85;;;3.65;;
31298;SDS011;17927;52.350;13.402;2022-07-22T09:35:08;4.40;;;4.00;;
31298;SDS011;17927;52.350;13.402;2022-07-22T09:37:35;4.68;;;3.13;;
31298;SDS011;17927;52.350;13.402;2022-07-22T09:40:11;3.15;;;3.03;;
31298;SDS011;17927;52.350;13.402;2022-07-22T09:42:48;3.60;;;3.40;;
31298;SDS011;17927;52.350;13.402;2022-07-22T09:45:24;4.75;;;3.70;;
31298;SDS011;17927;52.350;13.402;2022-07-22T09:47:51;3.20;;;3.00;;
31298;SDS011;17927;52.350;13.402;2022-07-22T09:50:22;3.20;;;3.00;;
31298;SDS011;17927;52.350;13.402;2022-07-22T09:52:59;3.45;;;3.28;;
31298;SDS011;17927;52.350;13.402;2022-07-22T09:55:26;4.13;;;3.83;;
31298;SDS011;17927;52.350;13.402;2022-07-22T09:57:53;4.18;;;3.78;;
31298;SDS011;17927;52.350;13.402;2022-07-22T10:00:20;3.63;;;3.42;;
31298;SDS011;17927;52.350;13.402;2022-07-22T10:02:48;3.70;;;3.50;;
31298;SDS011;17927;52.350;13.402;2022-07-22T10:05:18;3.72;;;3.53;;
31298;SDS011;17927;52.350;13.402;2022-07-22T10:07:46;3.50;;;3.30;;
31298;SDS011;17927;52.350;13.402;2022-07-22T10:10:23;3.85;;;3.53;;
31298;SDS011;17927;52.350;13.402;2022-07-22T10:12:50;4.03;;;3.72;;
31298;SDS011;17927;52.350;13.402;2022-07-22T10:15:17;6.80;;;3.40;;
31298;SDS011;17927;52.350;13.402;2022-07-22T10:17:43;3.40;;;3.20;;
31298;SDS011;17927;52.350;13.402;2022-07-22T10:20:13;3.97;;;3.78;;
31298;SDS011;17927;52.350;13.402;2022-07-22T10:25:07;3.40;;;3.20;;
31298;SDS011;17927;52.350;13.402;2022-07-22T10:27:48;3.63;;;3.42;;
31298;SDS011;17927;52.350;13.402;2022-07-22T10:30:37;3.95;;;3.65;;
31298;SDS011;17927;52.350;13.402;2022-07-22T10:33:04;3.65;;;3.35;;
31298;SDS011;17927;52.350;13.402;2022-07-22T10:35:32;4.70;;;3.35;;
31298;SDS011;17927;52.350;13.402;2022-07-22T10:38:00;3.58;;;3.35;;
31298;SDS011;17927;52.350;13.402;2022-07-22T10:40:29;3.78;;;3.58;;
31298;SDS011;17927;52.350;13.402;2022-07-22T10:45:25;2.90;;;2.80;;
31298;SDS011;17927;52.350;13.402;2022-07-22T10:47:56;3.20;;;3.00;;
31298;SDS011;17927;52.350;13.402;2022-07-22T10:53:03;3.03;;;2.83;;
31298;SDS011;17927;52.350;13.402;2022-07-22T10:55:31;14.85;;;3.00;;
31298;SDS011;17927;52.350;13.402;2022-07-22T10:57:57;2.83;;;2.63;;
31298;SDS011;17927;52.350;13.402;2022-07-22T11:00:22;6.15;;;3.00;;
31298;SDS011;17927;52.350;13.402;2022-07-22T11:02:48;3.10;;;2.90;;
31298;SDS011;17927;52.350;13.402;2022-07-22T11:05:13;2.85;;;2.65;;
31298;SDS011;17927;52.350;13.402;2022-07-22T11:07:43;2.58;;;2.47;;
31298;SDS011;17927;52.350;13.402;2022-07-22T11:10:10;3.80;;;2.35;;
31298;SDS011;17927;52.350;13.402;2022-07-22T11:12:36;2.58;;;2.47;;
31298;SDS011;17927;52.350;13.402;2022-07-22T11:15:01;4.72;;;2.40;;
31298;SDS011;17927;52.350;13.402;2022-07-22T11:17:27;2.20;;;2.10;;
31298;SDS011;17927;52.350;13.402;2022-07-22T11:19:53;2.65;;;2.45;;
31298;SDS011;17927;52.350;13.402;2022-07-22T11:22:18;2.47;;;2.38;;
31298;SDS011;17927;52.350;13.402;2022-07-22T11:24:47;2.47;;;2.38;;
31298;SDS011;17927;52.350;13.402;2022-07-22T11:27:14;2.92;;;2.83;;
31298;SDS011;17927;52.350;13.402;2022-07-22T11:29:41;3.35;;;3.00;;
31298;SDS011;17927;52.350;13.402;2022-07-22T11:32:12;2.88;;;2.78;;
31298;SDS011;17927;52.350;13.402;2022-07-22T11:34:39;3.50;;;3.20;;
31298;SDS011;17927;52.350;13.402;2022-07-22T11:37:07;3.28;;;3.08;;
31298;SDS011;17927;52.350;13.402;2022-07-22T11:39:33;2.88;;;2.78;;
31298;SDS011;17927;52.350;13.402;2022-07-22T11:42:00;3.20;;;3.00;;
31298;SDS011;17927;52.350;13.402;2022-07-22T11:44:27;3.58;;;3.40;;
31298;SDS011;17927;52.350;13.402;2022-07-22T11:46:54;2.97;;;2.88;;
31298;SDS011;17927;52.350;13.402;2022-07-22T11:49:23;3.10;;;3.00;;
31298;SDS011;17927;52.350;13.402;2022-07-22T11:51:50;2.50;;;2.33;;
31298;SDS011;17927;52.350;13.402;2022-07-22T11:54:16;3.22;;;3.13;;
31298;SDS011;17927;52.350;13.402;2022-07-22T11:56:41;2.88;;;2.78;;
31298;SDS011;17927;52.350;13.402;2022-07-22T11:59:07;2.88;;;2.78;;
31298;SDS011;17927;52.350;13.402;2022-07-22T12:01:37;5.45;;;2.85;;
31298;SDS011;17927;52.350;13.402;2022-07-22T12:04:03;2.80;;;2.70;;
31298;SDS011;17927;52.350;13.402;2022-07-22T12:06:37;3.03;;;2.85;;
31298;SDS011;17927;52.350;13.402;2022-07-22T12:09:05;5.65;;;2.15;;
31298;SDS011;17927;52.350;13.402;2022-07-22T12:11:33;2.60;;;2.50;;
31298;SDS011;17927;52.350;13.402;2022-07-22T12:14:05;2.60;;;2.50;;
31298;SDS011;17927;52.350;13.402;2022-07-22T12:16:40;11.30;;;2.22;;
31298;SDS011;17927;52.350;13.402;2022-07-22T12:19:08;2.45;;;2.35;;
31298;SDS011;17927;52.350;13.402;2022-07-22T12:21:35;2.30;;;2.20;;
31298;SDS011;17927;52.350;13.402;2022-07-22T12:24:27;2.17;;;2.08;;
31298;SDS011;17927;52.350;13.402;2022-07-22T12:27:04;13.73;;;2.33;;
31298;SDS011;17927;52.350;13.402;2022-07-22T12:32:04;2.50;;;2.40;;
31298;SDS011;17927;52.350;13.402;2022-07-22T12:37:31;2.70;;;2.50;;
31298;SDS011;17927;52.350;13.402;2022-07-22T12:39:59;3.78;;;2.60;;
31298;SDS011;17927;52.350;13.402;2022-07-22T12:42:45;2.97;;;2.10;;
31298;SDS011;17927;52.350;13.402;2022-07-22T12:45:13;2.60;;;2.50;;
31298;SDS011;17927;52.350;13.402;2022-07-22T12:50:27;1.83;;;1.73;;
31298;SDS011;17927;52.350;13.402;2022-07-22T12:52:58;3.72;;;2.20;;
31298;SDS011;17927;52.350;13.402;2022-07-22T12:55:30;11.63;;;2.28;;
31298;SDS011;17927;52.350;13.402;2022-07-22T12:57:57;2.00;;;1.90;;
31298;SDS011;17927;52.350;13.402;2022-07-22T13:00:26;1.30;;;1.30;;
31298;SDS011;17927;52.350;13.402;2022-07-22T13:02:53;1.85;;;1.80;;
31298;SDS011;17927;52.350;13.402;2022-07-22T13:05:20;1.52;;;1.42;;
31298;SDS011;17927;52.350;13.402;2022-07-22T13:07:45;1.27;;;1.27;;
31298;SDS011;17927;52.350;13.402;2022-07-22T13:10:11;1.67;;;1.38;;
31298;SDS011;17927;52.350;13.402;2022-07-22T13:12:38;1.40;;;1.30;;
31298;SDS011;17927;52.350;13.402;2022-07-22T13:15:04;1.20;;;1.20;;
31298;SDS011;17927;52.350;13.402;2022-07-22T13:17:30;1.23;;;1.20;;
31298;SDS011;17927;52.350;13.402;2022-07-22T13:19:55;1.40;;;1.40;;
31298;SDS011;17927;52.350;13.402;2022-07-22T13:22:21;1.55;;;1.48;;
31298;SDS011;17927;52.350;13.402;2022-07-22T13:24:46;1.77;;;1.67;;
31298;SDS011;17927;52.350;13.402;2022-07-22T13:27:11;1.23;;;1.20;;
31298;SDS011;17927;52.350;13.402;2022-07-22T13:29:37;1.10;;;1.10;;
31298;SDS011;17927;52.350;13.402;2022-07-22T13:32:02;1.58;;;1.55;;
31298;SDS011;17927;52.350;13.402;2022-07-22T13:34:27;1.70;;;1.60;;
31298;SDS011;17927;52.350;13.402;2022-07-22T13:36:52;3.20;;;1.40;;
31298;SDS011;17927;52.350;13.402;2022-07-22T13:39:18;2.40;;;1.20;;
31298;SDS011;17927;52.350;13.402;2022-07-22T13:41:43;1.88;;;1.10;;
31298;SDS011;17927;52.350;13.402;2022-07-22T13:44:08;1.00;;;1.00;;
31298;SDS011;17927;52.350;13.402;2022-07-22T13:46:34;1.02;;;1.02;;
31298;SDS011;17927;52.350;13.402;2022-07-22T13:49:00;0.93;;;0.93;;
31298;SDS011;17927;52.350;13.402;2022-07-22T13:51:25;1.00;;;1.00;;
31298;SDS011;17927;52.350;13.402;2022-07-22T13:53:50;1.02;;;1.02;;
31298;SDS011;17927;52.350;13.402;2022-07-22T13:56:16;0.85;;;0.85;;
31298;SDS011;17927;52.350;13.402;2022-07-22T13:58:41;1.02;;;1.02;;
31298;SDS011;17927;52.350;13.402;2022-07-22T14:01:07;0.63;;;0.63;;
31298;SDS011;17927;52.350;13.402;2022-07-22T14:03:34;1.10;;;1.00;;
31298;SDS011;17927;52.350;13.402;2022-07-22T14:05:59;0.70;;;0.70;;
31298;SDS011;17927;52.350;13.402;2022-07-22T14:08:24;1.17;;;1.07;;
31298;SDS011;17927;52.350;13.402;2022-07-22T14:10:49;1.20;;;0.90;;
31298;SDS011;17927;52.350;13.402;2022-07-22T14:13:15;1.55;;;1.00;;
31298;SDS011;17927;52.350;13.402;2022-07-22T14:15:40;0.73;;;0.57;;
31298;SDS011;17927;52.350;13.402;2022-07-22T14:18:05;0.70;;;0.70;;
31298;SDS011;17927;52.350;13.402;2022-07-22T14:20:32;0.80;;;0.80;;
31298;SDS011;17927;52.350;13.402;2022-07-22T14:22:57;1.10;;;1.00;;
31298;SDS011;17927;52.350;13.402;2022-07-22T14:25:23;0.60;;;0.60;;
31298;SDS011;17927;52.350;13.402;2022-07-22T14:27:48;0.95;;;0.90;;
31298;SDS011;17927;52.350;13.402;2022-07-22T14:30:14;2.63;;;0.70;;
31298;SDS011;17927;52.350;13.402;2022-07-22T14:32:39;0.67;;;0.67;;
31298;SDS011;17927;52.350;13.402;2022-07-22T14:35:04;0.68;;;0.68;;
31298;SDS011;17927;52.350;13.402;2022-07-22T14:37:31;1.00;;;1.00;;
31298;SDS011;17927;52.350;13.402;2022-07-22T14:39:56;4.32;;;0.80;;
31298;SDS011;17927;52.350;13.402;2022-07-22T14:42:21;1.27;;;0.90;;